sensor_id;sensor_type;location;lat;lon;timestamp;pressure;altitude;pressure_sealevel;temperature;humidity
57606;BME280;43430;48.204;11.556;2023-08-30T00:00:05;95606.31;;;11.73;100.00
57606;BME280;43430;48.204;11.556;2023-08-30T00:02:30;95601.28;;;11.72;100.00
57606;BME280;43430;48.204;11.556;2023-08-30T00:04:59;95602.03;;;11.67;100.00
57606;BME280;43430;48.204;11.556;2023-08-30T00:07:26;95605.69;;;11.66;100.00
57606;BME280;43430;48.204;11.556;2023-08-30T00:09:51;95611.84;;;11.72;100.00
57606;BME280;43430;48.204;11.556;2023-08-30T00:12:16;95611.28;;;11.70;100.00
57606;BME280;43430;48.204;11.556;2023-08-30T00:14:42;95607.69;;;11.76;100.00
57606;BME280;43430;48.204;11.556;2023-08-30T00:17:08;95600.66;;;11.64;100.00
57606;BME280;43430;48.204;11.556;2023-08-30T00:19:33;95605.63;;;11.49;100.00
57606;BME280;43430;48.204;11.556;2023-08-30T00:21:59;95605.31;;;11.46;100.00
57606;BME280;43430;48.204;11.556;2023-08-30T00:24:24;95603.72;;;11.45;100.00
57606;BME280;43430;48.204;11.556;2023-08-30T00:26:50;95602.78;;;11.51;100.00
57606;BME280;43430;48.204;11.556;2023-08-30T00:29:15;95606.00;;;11.53;100.00
57606;BME280;43430;48.204;11.556;2023-08-30T00:31:40;95598.16;;;11.58;100.00
57606;BME280;43430;48.204;11.556;2023-08-30T00:34:05;95600.03;;;11.46;100.00
57606;BME280;43430;48.204;11.556;2023-08-30T00:36:31;95599.47;;;11.44;100.00
57606;BME280;43430;48.204;11.556;2023-08-30T00:38:56;95599.34;;;11.50;100.00
57606;BME280;43430;48.204;11.556;2023-08-30T00:41:21;95602.78;;;11.51;100.00
57606;BME280;43430;48.204;11.556;2023-08-30T00:43:47;95601.97;;;11.50;100.00
57606;BME280;43430;48.204;11.556;2023-08-30T00:46:13;95602.44;;;11.47;100.00
57606;BME280;43430;48.204;11.556;2023-08-30T00:48:39;95602.78;;;11.51;100.00
57606;BME280;43430;48.204;11.556;2023-08-30T00:51:05;95597.31;;;11.40;100.00
57606;BME280;43430;48.204;11.556;2023-08-30T00:53:31;95598.81;;;11.36;100.00
57606;BME280;43430;48.204;11.556;2023-08-30T00:55:57;95601.94;;;11.33;100.00
57606;BME280;43430;48.204;11.556;2023-08-30T00:58:23;95596.03;;;11.43;100.00
57606;BME280;43430;48.204;11.556;2023-08-30T01:00:48;95598.28;;;11.51;100.00
57606;BME280;43430;48.204;11.556;2023-08-30T01:03:15;95594.53;;;11.47;100.00
57606;BME280;43430;48.204;11.556;2023-08-30T01:05:40;95598.22;;;11.46;100.00
57606;BME280;43430;48.204;11.556;2023-08-30T01:08:05;95606.53;;;11.55;100.00
57606;BME280;43430;48.204;11.556;2023-08-30T01:10:39;95600.47;;;11.54;100.00
57606;BME280;43430;48.204;11.556;2023-08-30T01:13:12;95598.53;;;11.50;100.00
57606;BME280;43430;48.204;11.556;2023-08-30T01:15:40;95603.81;;;11.50;100.00
57606;BME280;43430;48.204;11.556;2023-08-30T01:18:08;95612.00;;;11.36;100.00
57606;BME280;43430;48.204;11.556;2023-08-30T01:20:37;95608.13;;;11.39;100.00
57606;BME280;43430;48.204;11.556;2023-08-30T01:23:15;95605.59;;;11.32;100.00
57606;BME280;43430;48.204;11.556;2023-08-30T01:25:48;95602.00;;;11.38;100.00
57606;BME280;43430;48.204;11.556;2023-08-30T01:28:19;95598.44;;;11.45;100.00
57606;BME280;43430;48.204;11.556;2023-08-30T01:30:45;95592.50;;;11.37;100.00
57606;BME280;43430;48.204;11.556;2023-08-30T01:33:13;95597.88;;;11.43;100.00
57606;BME280;43430;48.204;11.556;2023-08-30T01:35:40;95593.28;;;11.38;100.00
57606;BME280;43430;48.204;11.556;2023-08-30T01:38:06;95590.28;;;11.46;100.00
57606;BME280;43430;48.204;11.556;2023-08-30T01:40:37;95594.59;;;11.52;100.00
57606;BME280;43430;48.204;11.556;2023-08-30T01:43:05;95587.50;;;11.53;100.00
57606;BME280;43430;48.204;11.556;2023-08-30T01:45:33;95593.00;;;11.51;100.00
57606;BME280;43430;48.204;11.556;2023-08-30T01:48:00;95593.16;;;11.45;100.00
57606;BME280;43430;48.204;11.556;2023-08-30T01:50:26;95597.56;;;11.39;100.00
57606;BME280;43430;48.204;11.556;2023-08-30T01:52:52;95598.91;;;11.41;100.00
57606;BME280;43430;48.204;11.556;2023-08-30T01:55:20;95600.03;;;11.46;100.00
57606;BME280;43430;48.204;11.556;2023-08-30T01:57:46;95600.03;;;11.46;100.00
57606;BME280;43430;48.204;11.556;2023-08-30T02:00:12;95592.09;;;11.46;100.00
57606;BME280;43430;48.204;11.556;2023-08-30T02:02:38;95604.84;;;11.49;100.00
57606;BME280;43430;48.204;11.556;2023-08-30T02:05:03;95596.97;;;11.37;100.00
57606;BME280;43430;48.204;11.556;2023-08-30T02:10:22;95591.84;;;11.30;100.00
57606;BME280;43430;48.204;11.556;2023-08-30T02:12:50;95602.25;;;11.37;100.00
57606;BME280;43430;48.204;11.556;2023-08-30T02:15:18;95597.13;;;11.30;100.00
57606;BME280;43430;48.204;11.556;2023-08-30T02:17:45;95592.63;;;11.31;100.00
57606;BME280;43430;48.204;11.556;2023-08-30T02:20:11;95598.97;;;11.18;100.00
57606;BME280;43430;48.204;11.556;2023-08-30T02:22:37;95597.50;;;11.22;100.00
57606;BME280;43430;48.204;11.556;2023-08-30T02:25:02;95595.97;;;11.26;100.00
57606;BME280;43430;48.204;11.556;2023-08-30T02:27:32;95598.63;;;11.26;100.00
57606;BME280;43430;48.204;11.556;2023-08-30T02:29:57;95595.06;;;11.32;100.00
57606;BME280;43430;48.204;11.556;2023-08-30T02:32:23;95589.78;;;11.32;100.00
57606;BME280;43430;48.204;11.556;2023-08-30T02:34:50;95588.16;;;11.31;100.00
57606;BME280;43430;48.204;11.556;2023-08-30T02:37:17;95590.00;;;11.31;100.00
57606;BME280;43430;48.204;11.556;2023-08-30T02:39:42;95593.44;;;11.31;100.00
57606;BME280;43430;48.204;11.556;2023-08-30T02:42:07;95591.38;;;11.33;100.00
57606;BME280;43430;48.204;11.556;2023-08-30T02:44:33;95597.56;;;11.27;100.00
57606;BME280;43430;48.204;11.556;2023-08-30T02:46:58;95586.75;;;11.12;100.00
57606;BME280;43430;48.204;11.556;2023-08-30T02:49:23;95607.94;;;11.17;100.00
57606;BME280;43430;48.204;11.556;2023-08-30T02:51:49;95595.41;;;11.24;100.00
57606;BME280;43430;48.204;11.556;2023-08-30T02:54:14;95600.72;;;11.12;100.00
57606;BME280;43430;48.204;11.556;2023-08-30T02:56:43;95596.44;;;11.23;100.00
57606;BME280;43430;48.204;11.556;2023-08-30T02:59:10;95605.28;;;11.29;100.00
57606;BME280;43430;48.204;11.556;2023-08-30T03:01:35;95604.25;;;11.18;100.00
57606;BME280;43430;48.204;11.556;2023-08-30T03:04:01;95606.88;;;11.30;100.00
57606;BME280;43430;48.204;11.556;2023-08-30T03:06:26;95600.22;;;11.27;100.00
57606;BME280;43430;48.204;11.556;2023-08-30T03:08:53;95603.44;;;11.29;100.00
57606;BME280;43430;48.204;11.556;2023-08-30T03:11:19;95596.06;;;11.31;100.00
57606;BME280;43430;48.204;11.556;2023-08-30T03:13:44;95603.97;;;11.31;100.00
57606;BME280;43430;48.204;11.556;2023-08-30T03:18:36;95596.19;;;11.25;100.00
57606;BME280;43430;48.204;11.556;2023-08-30T03:21:01;95593.44;;;11.31;100.00
57606;BME280;43430;48.204;11.556;2023-08-30T03:23:27;95588.63;;;11.28;100.00
57606;BME280;43430;48.204;11.556;2023-08-30T03:25:53;95592.31;;;11.27;100.00
57606;BME280;43430;48.204;11.556;2023-08-30T03:28:18;95593.22;;;11.33;100.00
57606;BME280;43430;48.204;11.556;2023-08-30T03:30:43;95589.28;;;11.35;100.00
57606;BME280;43430;48.204;11.556;2023-08-30T03:33:09;95589.78;;;11.32;100.00
57606;BME280;43430;48.204;11.556;2023-08-30T03:35:34;95586.09;;;11.33;100.00
57606;BME280;43430;48.204;11.556;2023-08-30T03:38:00;95595.53;;;11.29;100.00
57606;BME280;43430;48.204;11.556;2023-08-30T03:40:25;95592.41;;;11.32;100.00
57606;BME280;43430;48.204;11.556;2023-08-30T03:42:52;95588.88;;;11.27;100.00
57606;BME280;43430;48.204;11.556;2023-08-30T03:45:18;95593.47;;;11.20;100.00
57606;BME280;43430;48.204;11.556;2023-08-30T03:47:43;95588.91;;;11.15;100.00
57606;BME280;43430;48.204;11.556;2023-08-30T03:50:09;95592.09;;;11.17;100.00
57606;BME280;43430;48.204;11.556;2023-08-30T03:52:34;95598.03;;;11.24;100.00
57606;BME280;43430;48.204;11.556;2023-08-30T03:55:00;95596.84;;;11.15;100.00
57606;BME280;43430;48.204;11.556;2023-08-30T03:57:26;95592.75;;;11.24;100.00
57606;BME280;43430;48.204;11.556;2023-08-30T03:59:51;95595.06;;;11.32;100.00
57606;BME280;43430;48.204;11.556;2023-08-30T04:02:17;95601.47;;;11.36;100.00
57606;BME280;43430;48.204;11.556;2023-08-30T04:04:42;95602.84;;;11.27;100.00
57606;BME280;43430;48.204;11.556;2023-08-30T04:07:07;95591.38;;;11.33;100.00
57606;BME280;43430;48.204;11.556;2023-08-30T04:09:33;95599.41;;;11.27;100.00
57606;BME280;43430;48.204;11.556;2023-08-30T04:11:58;95588.75;;;11.22;100.00
57606;BME280;43430;48.204;11.556;2023-08-30T04:14:25;95589.91;;;11.26;100.00
57606;BME280;43430;48.204;11.556;2023-08-30T04:16:50;95600.00;;;11.29;100.00
57606;BME280;43430;48.204;11.556;2023-08-30T04:19:15;95591.25;;;11.28;100.00
57606;BME280;43430;48.204;11.556;2023-08-30T04:21:41;95596.66;;;11.22;100.00
57606;BME280;43430;48.204;11.556;2023-08-30T04:24:06;95596.78;;;11.27;100.00
57606;BME280;43430;48.204;11.556;2023-08-30T04:26:31;95605.59;;;11.32;100.00
57606;BME280;43430;48.204;11.556;2023-08-30T04:28:57;95605.59;;;11.32;100.00
57606;BME280;43430;48.204;11.556;2023-08-30T04:31:22;95597.50;;;11.22;100.00
57606;BME280;43430;48.204;11.556;2023-08-30T04:33:47;95602.31;;;11.13;100.00
57606;BME280;43430;48.204;11.556;2023-08-30T04:36:13;95600.81;;;11.17;100.00
57606;BME280;43430;48.204;11.556;2023-08-30T04:38:38;95605.03;;;11.30;100.00
57606;BME280;43430;48.204;11.556;2023-08-30T04:41:03;95603.91;;;11.26;100.00
57606;BME280;43430;48.204;11.556;2023-08-30T04:43:29;95601.34;;;11.31;100.00
57606;BME280;43430;48.204;11.556;2023-08-30T04:45:54;95605.59;;;11.32;100.00
57606;BME280;43430;48.204;11.556;2023-08-30T04:48:20;95605.41;;;11.22;100.00
57606;BME280;43430;48.204;11.556;2023-08-30T04:50:45;95608.28;;;11.21;100.00
57606;BME280;43430;48.204;11.556;2023-08-30T04:53:10;95598.97;;;11.18;100.00
57606;BME280;43430;48.204;11.556;2023-08-30T04:55:36;95606.00;;;11.12;100.00
57606;BME280;43430;48.204;11.556;2023-08-30T04:58:01;95604.25;;;11.18;100.00
57606;BME280;43430;48.204;11.556;2023-08-30T05:00:27;95602.91;;;11.15;100.00
57606;BME280;43430;48.204;11.556;2023-08-30T05:02:53;95609.97;;;11.27;100.00
57606;BME280;43430;48.204;11.556;2023-08-30T05:05:18;95608.94;;;11.28;100.00
57606;BME280;43430;48.204;11.556;2023-08-30T05:07:43;95609.13;;;11.38;100.00
57606;BME280;43430;48.204;11.556;2023-08-30T05:10:09;95612.56;;;11.38;100.00
57606;BME280;43430;48.204;11.556;2023-08-30T05:12:34;95613.16;;;11.40;100.00
57606;BME280;43430;48.204;11.556;2023-08-30T05:15:00;95604.50;;;11.45;100.00
57606;BME280;43430;48.204;11.556;2023-08-30T05:17:26;95605.09;;;11.47;100.00
57606;BME280;43430;48.204;11.556;2023-08-30T05:19:53;95613.66;;;11.54;100.00
57606;BME280;43430;48.204;11.556;2023-08-30T05:22:18;95601.06;;;11.45;100.00
57606;BME280;43430;48.204;11.556;2023-08-30T05:24:44;95607.41;;;11.44;100.00
57606;BME280;43430;48.204;11.556;2023-08-30T05:27:09;95609.84;;;11.33;100.00
57606;BME280;43430;48.204;11.556;2023-08-30T05:29:36;95616.97;;;11.33;100.00
57606;BME280;43430;48.204;11.556;2023-08-30T05:32:02;95616.25;;;11.37;100.00
57606;BME280;43430;48.204;11.556;2023-08-30T05:34:27;95614.78;;;11.30;100.00
57606;BME280;43430;48.204;11.556;2023-08-30T05:36:53;95616.25;;;11.37;100.00
57606;BME280;43430;48.204;11.556;2023-08-30T05:39:18;95622.09;;;11.39;100.00
57606;BME280;43430;48.204;11.556;2023-08-30T05:41:44;95625.88;;;11.44;100.00
57606;BME280;43430;48.204;11.556;2023-08-30T05:44:10;95611.69;;;11.33;100.00
57606;BME280;43430;48.204;11.556;2023-08-30T05:46:35;95607.19;;;11.33;100.00
57606;BME280;43430;48.204;11.556;2023-08-30T05:49:01;95611.44;;;11.34;100.00
57606;BME280;43430;48.204;11.556;2023-08-30T05:51:28;95609.25;;;11.31;100.00
57606;BME280;43430;48.204;11.556;2023-08-30T05:53:53;95608.34;;;11.37;100.00
57606;BME280;43430;48.204;11.556;2023-08-30T05:56:19;95601.00;;;11.39;100.00
57606;BME280;43430;48.204;11.556;2023-08-30T05:58:44;95611.09;;;11.43;100.00
57606;BME280;43430;48.204;11.556;2023-08-30T06:01:09;95615.88;;;11.46;100.00
57606;BME280;43430;48.204;11.556;2023-08-30T06:03:35;95616.38;;;11.43;100.00
57606;BME280;43430;48.204;11.556;2023-08-30T06:06:00;95623.00;;;11.45;100.00
57606;BME280;43430;48.204;11.556;2023-08-30T06:08:26;95622.16;;;11.56;100.00
57606;BME280;43430;48.204;11.556;2023-08-30T06:10:52;95625.53;;;11.69;100.00
57606;BME280;43430;48.204;11.556;2023-08-30T06:13:17;95622.97;;;11.57;100.00
57606;BME280;43430;48.204;11.556;2023-08-30T06:15:43;95624.69;;;11.51;100.00
57606;BME280;43430;48.204;11.556;2023-08-30T06:18:09;95622.19;;;11.45;100.00
57606;BME280;43430;48.204;11.556;2023-08-30T06:20:35;95631.22;;;11.60;100.00
57606;BME280;43430;48.204;11.556;2023-08-30T06:23:03;95630.34;;;11.43;100.00
57606;BME280;43430;48.204;11.556;2023-08-30T06:25:28;95635.84;;;11.53;100.00
57606;BME280;43430;48.204;11.556;2023-08-30T06:27:58;95633.72;;;11.67;100.00
57606;BME280;43430;48.204;11.556;2023-08-30T06:30:25;95635.97;;;11.75;100.00
57606;BME280;43430;48.204;11.556;2023-08-30T06:32:50;95628.69;;;11.82;100.00
57606;BME280;43430;48.204;11.556;2023-08-30T06:35:16;95628.25;;;11.85;100.00
57606;BME280;43430;48.204;11.556;2023-08-30T06:37:41;95632.75;;;11.73;100.00
57606;BME280;43430;48.204;11.556;2023-08-30T06:40:07;95622.03;;;11.80;100.00
57606;BME280;43430;48.204;11.556;2023-08-30T06:42:32;95620.91;;;11.76;100.00
57606;BME280;43430;48.204;11.556;2023-08-30T06:44:58;95621.06;;;11.69;100.00
57606;BME280;43430;48.204;11.556;2023-08-30T06:47:23;95620.03;;;11.70;100.00
57606;BME280;43430;48.204;11.556;2023-08-30T06:49:48;95625.72;;;11.79;100.00
57606;BME280;43430;48.204;11.556;2023-08-30T06:52:14;95627.38;;;11.97;100.00
57606;BME280;43430;48.204;11.556;2023-08-30T06:54:39;95631.94;;;11.84;100.00
57606;BME280;43430;48.204;11.556;2023-08-30T06:57:04;95628.13;;;11.80;100.00
57606;BME280;43430;48.204;11.556;2023-08-30T06:59:32;95627.97;;;11.70;100.00
57606;BME280;43430;48.204;11.556;2023-08-30T07:01:58;95629.47;;;11.83;100.00
57606;BME280;43430;48.204;11.556;2023-08-30T07:04:23;95632.00;;;11.90;100.00
57606;BME280;43430;48.204;11.556;2023-08-30T07:06:50;95636.34;;;11.96;100.00
57606;BME280;43430;48.204;11.556;2023-08-30T07:09:15;95627.19;;;11.86;100.00
57606;BME280;43430;48.204;11.556;2023-08-30T07:11:42;95633.97;;;11.82;100.00
57606;BME280;43430;48.204;11.556;2023-08-30T07:14:11;95625.13;;;11.88;100.00
57606;BME280;43430;48.204;11.556;2023-08-30T07:16:38;95625.16;;;12.05;100.00
57606;BME280;43430;48.204;11.556;2023-08-30T07:19:03;95633.69;;;11.96;100.00
57606;BME280;43430;48.204;11.556;2023-08-30T07:21:29;95625.53;;;11.97;100.00
57606;BME280;43430;48.204;11.556;2023-08-30T07:23:54;95625.63;;;12.02;100.00
57606;BME280;43430;48.204;11.556;2023-08-30T07:26:20;95628.44;;;12.13;100.00
57606;BME280;43430;48.204;11.556;2023-08-30T07:28:45;95624.81;;;12.02;100.00
57606;BME280;43430;48.204;11.556;2023-08-30T07:31:11;95629.63;;;12.05;100.00
57606;BME280;43430;48.204;11.556;2023-08-30T07:33:39;95625.31;;;11.99;100.00
57606;BME280;43430;48.204;11.556;2023-08-30T07:36:05;95616.09;;;11.84;100.00
57606;BME280;43430;48.204;11.556;2023-08-30T07:38:30;95627.53;;;11.90;100.00
57606;BME280;43430;48.204;11.556;2023-08-30T07:40:56;95628.19;;;12.14;100.00
57606;BME280;43430;48.204;11.556;2023-08-30T07:43:21;95630.59;;;12.16;100.00
57606;BME280;43430;48.204;11.556;2023-08-30T07:45:47;95633.63;;;12.24;100.00
57606;BME280;43430;48.204;11.556;2023-08-30T07:48:12;95633.31;;;12.21;100.00
57606;BME280;43430;48.204;11.556;2023-08-30T07:50:38;95639.19;;;12.23;100.00
57606;BME280;43430;48.204;11.556;2023-08-30T07:53:03;95634.84;;;12.33;100.00
57606;BME280;43430;48.204;11.556;2023-08-30T07:55:28;95643.72;;;12.27;100.00
57606;BME280;43430;48.204;11.556;2023-08-30T07:57:54;95638.13;;;12.24;100.00
57606;BME280;43430;48.204;11.556;2023-08-30T08:00:19;95644.53;;;12.28;100.00
57606;BME280;43430;48.204;11.556;2023-08-30T08:02:45;95644.06;;;12.48;100.00
57606;BME280;43430;48.204;11.556;2023-08-30T08:05:11;95648.53;;;12.64;100.00
57606;BME280;43430;48.204;11.556;2023-08-30T08:07:42;95637.94;;;12.64;100.00
57606;BME280;43430;48.204;11.556;2023-08-30T08:10:08;95641.78;;;12.73;100.00
57606;BME280;43430;48.204;11.556;2023-08-30T08:12:34;95641.03;;;12.95;100.00
57606;BME280;43430;48.204;11.556;2023-08-30T08:15:00;95637.47;;;13.06;100.00
57606;BME280;43430;48.204;11.556;2023-08-30T08:17:25;95628.72;;;12.83;100.00
57606;BME280;43430;48.204;11.556;2023-08-30T08:19:51;95634.50;;;13.02;100.00
57606;BME280;43430;48.204;11.556;2023-08-30T08:22:16;95638.00;;;13.25;100.00
57606;BME280;43430;48.204;11.556;2023-08-30T08:24:42;95631.81;;;13.41;100.00
57606;BME280;43430;48.204;11.556;2023-08-30T08:27:08;95629.88;;;13.59;100.00
57606;BME280;43430;48.204;11.556;2023-08-30T08:29:34;95616.91;;;13.57;100.00
57606;BME280;43430;48.204;11.556;2023-08-30T08:31:59;95620.25;;;13.74;100.00
57606;BME280;43430;48.204;11.556;2023-08-30T08:34:25;95612.38;;;13.52;100.00
57606;BME280;43430;48.204;11.556;2023-08-30T08:36:50;95605.94;;;13.48;100.00
57606;BME280;43430;48.204;11.556;2023-08-30T08:39:15;95597.75;;;13.50;100.00
57606;BME280;43430;48.204;11.556;2023-08-30T08:41:43;95599.56;;;13.71;100.00
57606;BME280;43430;48.204;11.556;2023-08-30T08:44:09;95603.19;;;13.92;100.00
57606;BME280;43430;48.204;11.556;2023-08-30T08:46:36;95591.63;;;14.04;100.00
57606;BME280;43430;48.204;11.556;2023-08-30T08:49:14;95589.91;;;14.19;100.00
57606;BME280;43430;48.204;11.556;2023-08-30T08:51:40;95574.72;;;14.10;100.00
57606;BME280;43430;48.204;11.556;2023-08-30T08:54:07;95576.47;;;13.94;100.00
57606;BME280;43430;48.204;11.556;2023-08-30T08:56:34;95581.25;;;14.34;100.00
57606;BME280;43430;48.204;11.556;2023-08-30T08:59:00;95574.03;;;14.24;100.00
57606;BME280;43430;48.204;11.556;2023-08-30T09:01:26;95567.03;;;14.45;100.00
57606;BME280;43430;48.204;11.556;2023-08-30T09:03:52;95553.84;;;14.56;100.00
57606;BME280;43430;48.204;11.556;2023-08-30T09:06:18;95546.31;;;14.47;100.00
57606;BME280;43430;48.204;11.556;2023-08-30T09:08:44;95548.75;;;14.49;100.00
57606;BME280;43430;48.204;11.556;2023-08-30T09:11:10;95549.91;;;14.63;100.00
57606;BME280;43430;48.204;11.556;2023-08-30T09:13:35;95545.13;;;14.65;100.00
57606;BME280;43430;48.204;11.556;2023-08-30T09:16:00;95536.38;;;14.65;100.00
57606;BME280;43430;48.204;11.556;2023-08-30T09:18:27;95529.75;;;14.72;100.00
57606;BME280;43430;48.204;11.556;2023-08-30T09:21:05;95525.78;;;14.70;100.00
57606;BME280;43430;48.204;11.556;2023-08-30T09:23:30;95530.91;;;14.87;100.00
57606;BME280;43430;48.204;11.556;2023-08-30T09:25:55;95525.09;;;14.95;100.00
57606;BME280;43430;48.204;11.556;2023-08-30T09:28:21;95513.31;;;14.70;100.00
57606;BME280;43430;48.204;11.556;2023-08-30T09:30:50;95513.28;;;14.65;100.00
57606;BME280;43430;48.204;11.556;2023-08-30T09:33:20;95515.84;;;15.08;100.00
57606;BME280;43430;48.204;11.556;2023-08-30T09:35:46;95507.72;;;15.50;100.00
57606;BME280;43430;48.204;11.556;2023-08-30T09:38:18;95492.50;;;15.20;100.00
57606;BME280;43430;48.204;11.556;2023-08-30T09:40:44;95486.66;;;15.13;100.00
57606;BME280;43430;48.204;11.556;2023-08-30T09:43:11;95489.91;;;15.56;100.00
57606;BME280;43430;48.204;11.556;2023-08-30T09:45:37;95483.00;;;15.60;100.00
57606;BME280;43430;48.204;11.556;2023-08-30T09:48:03;95485.94;;;15.63;100.00
57606;BME280;43430;48.204;11.556;2023-08-30T09:50:33;95475.81;;;15.50;100.00
57606;BME280;43430;48.204;11.556;2023-08-30T09:52:59;95475.78;;;15.25;100.00
57606;BME280;43430;48.204;11.556;2023-08-30T09:55:25;95464.88;;;15.11;100.00
57606;BME280;43430;48.204;11.556;2023-08-30T09:57:51;95472.59;;;15.28;100.00
57606;BME280;43430;48.204;11.556;2023-08-30T10:00:17;95481.06;;;15.09;100.00
57606;BME280;43430;48.204;11.556;2023-08-30T10:02:43;95477.91;;;15.17;100.00
57606;BME280;43430;48.204;11.556;2023-08-30T10:05:10;95482.13;;;15.13;100.00
57606;BME280;43430;48.204;11.556;2023-08-30T10:07:36;95472.03;;;15.10;100.00
57606;BME280;43430;48.204;11.556;2023-08-30T10:10:05;95473.59;;;14.96;100.00
57606;BME280;43430;48.204;11.556;2023-08-30T10:12:34;95469.34;;;15.00;100.00
57606;BME280;43430;48.204;11.556;2023-08-30T10:14:59;95469.88;;;14.87;100.00
57606;BME280;43430;48.204;11.556;2023-08-30T10:17:33;95469.88;;;14.87;100.00
57606;BME280;43430;48.204;11.556;2023-08-30T10:20:03;95479.41;;;14.88;100.00
57606;BME280;43430;48.204;11.556;2023-08-30T10:22:29;95478.31;;;14.79;100.00
57606;BME280;43430;48.204;11.556;2023-08-30T10:25:26;95477.28;;;14.90;100.00
57606;BME280;43430;48.204;11.556;2023-08-30T10:27:54;95461.09;;;14.96;100.00
57606;BME280;43430;48.204;11.556;2023-08-30T10:30:21;95449.47;;;15.08;100.00
57606;BME280;43430;48.204;11.556;2023-08-30T10:32:46;95446.31;;;15.21;100.00
57606;BME280;43430;48.204;11.556;2023-08-30T10:35:14;95447.66;;;15.59;100.00
57606;BME280;43430;48.204;11.556;2023-08-30T10:37:40;95443.94;;;15.86;100.00
57606;BME280;43430;48.204;11.556;2023-08-30T10:40:09;95428.00;;;15.91;100.00
57606;BME280;43430;48.204;11.556;2023-08-30T10:42:36;95423.75;;;15.90;100.00
57606;BME280;43430;48.204;11.556;2023-08-30T10:45:05;95419.72;;;15.93;100.00
57606;BME280;43430;48.204;11.556;2023-08-30T10:47:33;95416.75;;;16.25;100.00
57606;BME280;43430;48.204;11.556;2023-08-30T10:50:06;95412.88;;;16.61;100.00
57606;BME280;43430;48.204;11.556;2023-08-30T10:52:32;95403.25;;;16.71;100.00
57606;BME280;43430;48.204;11.556;2023-08-30T10:55:09;95402.63;;;16.94;100.00
57606;BME280;43430;48.204;11.556;2023-08-30T10:57:34;95381.56;;;16.98;100.00
57606;BME280;43430;48.204;11.556;2023-08-30T11:00:07;95372.19;;;17.05;100.00
57606;BME280;43430;48.204;11.556;2023-08-30T11:02:36;95361.81;;;17.38;100.00
57606;BME280;43430;48.204;11.556;2023-08-30T11:05:03;95349.16;;;17.20;100.00
57606;BME280;43430;48.204;11.556;2023-08-30T11:07:29;95344.75;;;17.05;100.00
57606;BME280;43430;48.204;11.556;2023-08-30T11:09:54;95361.44;;;17.21;100.00
57606;BME280;43430;48.204;11.556;2023-08-30T11:12:20;95339.91;;;17.12;100.00
57606;BME280;43430;48.204;11.556;2023-08-30T11:14:49;95336.28;;;17.32;100.00
57606;BME280;43430;48.204;11.556;2023-08-30T11:17:18;95337.00;;;17.38;100.00
57606;BME280;43430;48.204;11.556;2023-08-30T11:19:44;95334.34;;;17.38;100.00
57606;BME280;43430;48.204;11.556;2023-08-30T11:22:12;95331.41;;;17.39;100.00
57606;BME280;43430;48.204;11.556;2023-08-30T11:24:38;95338.72;;;16.94;100.00
57606;BME280;43430;48.204;11.556;2023-08-30T11:27:03;95343.31;;;16.83;100.00
57606;BME280;43430;48.204;11.556;2023-08-30T11:29:29;95352.19;;;16.64;100.00
57606;BME280;43430;48.204;11.556;2023-08-30T11:31:54;95365.50;;;16.64;100.00
57606;BME280;43430;48.204;11.556;2023-08-30T11:34:20;95370.19;;;16.17;100.00
57606;BME280;43430;48.204;11.556;2023-08-30T11:36:50;95375.03;;;16.00;100.00
57606;BME280;43430;48.204;11.556;2023-08-30T11:39:16;95369.50;;;15.86;100.00
57606;BME280;43430;48.204;11.556;2023-08-30T11:41:43;95372.09;;;16.06;100.00
57606;BME280;43430;48.204;11.556;2023-08-30T11:44:08;95359.06;;;16.15;100.00
57606;BME280;43430;48.204;11.556;2023-08-30T11:46:34;95340.72;;;16.08;100.00
57606;BME280;43430;48.204;11.556;2023-08-30T11:48:59;95334.84;;;16.17;100.00
57606;BME280;43430;48.204;11.556;2023-08-30T11:51:25;95327.84;;;16.36;100.00
57606;BME280;43430;48.204;11.556;2023-08-30T11:53:52;95337.38;;;16.92;100.00
57606;BME280;43430;48.204;11.556;2023-08-30T11:56:17;95330.97;;;16.93;100.00
57606;BME280;43430;48.204;11.556;2023-08-30T11:58:44;95334.19;;;17.24;100.00
57606;BME280;43430;48.204;11.556;2023-08-30T12:01:09;95314.81;;;17.47;100.00
57606;BME280;43430;48.204;11.556;2023-08-30T12:03:35;95323.84;;;17.75;100.00
57606;BME280;43430;48.204;11.556;2023-08-30T12:06:01;95317.19;;;17.78;100.00
57606;BME280;43430;48.204;11.556;2023-08-30T12:08:28;95309.84;;;17.94;100.00
57606;BME280;43430;48.204;11.556;2023-08-30T12:10:55;95303.28;;;18.29;100.00
57606;BME280;43430;48.204;11.556;2023-08-30T12:15:53;95289.78;;;18.20;100.00
57606;BME280;43430;48.204;11.556;2023-08-30T12:18:31;95293.38;;;17.87;100.00
57606;BME280;43430;48.204;11.556;2023-08-30T12:21:02;95275.72;;;18.15;100.00
57606;BME280;43430;48.204;11.556;2023-08-30T12:23:31;95268.88;;;18.46;100.00
57606;BME280;43430;48.204;11.556;2023-08-30T12:26:01;95265.38;;;18.27;100.00
57606;BME280;43430;48.204;11.556;2023-08-30T12:28:29;95259.63;;;17.72;100.00
57606;BME280;43430;48.204;11.556;2023-08-30T12:30:55;95267.06;;;18.23;100.00
57606;BME280;43430;48.204;11.556;2023-08-30T12:33:21;95275.09;;;18.42;100.00
57606;BME280;43430;48.204;11.556;2023-08-30T12:35:47;95277.31;;;18.35;100.00
57606;BME280;43430;48.204;11.556;2023-08-30T12:38:12;95267.75;;;18.10;100.00
57606;BME280;43430;48.204;11.556;2023-08-30T12:40:45;95283.41;;;18.16;100.00
57606;BME280;43430;48.204;11.556;2023-08-30T12:43:12;95272.03;;;18.11;100.00